Time;durP1;ratioP1;P1;durP2;ratioP2;P2;SDS_P1;SDS_P2;PMS_P1;PMS_P2;Temp;Humidity;BMP_temperature;BMP_pressure;BME280_temperature;BME280_humidity;BME280_pressure;Samples;Min_cycle;Max_cycle;Signal;HPM_P1;HPM_P2
2022/12/18 00:01:25;;;;;;;26.20;9.93;;;;;;;3.47;79.59;100080.60;1616232;89;21032;-77
2022/12/18 00:03:54;;;;;;;21.35;9.35;;;;;;;3.40;79.22;100078.31;1615951;88;21015;-77
2022/12/18 00:06:22;;;;;;;27.13;10.65;;;;;;;3.32;79.25;100085.89;1615795;88;21004;-77
2022/12/18 00:08:49;;;;;;;29.52;10.80;;;;;;;3.26;78.68;100092.59;1595232;89;21493;-78
2022/12/18 00:11:19;;;;;;;25.80;9.80;;;;;;;3.18;79.03;100104.00;1615475;89;21097;-77
2022/12/18 00:13:47;;;;;;;26.40;10.60;;;;;;;3.11;79.08;100096.59;1611191;88;21037;-77
2022/12/18 00:16:20;;;;;;;28.57;10.05;;;;;;;3.04;78.66;100110.12;1612598;89;21069;-77
2022/12/18 00:18:49;;;;;;;31.25;11.10;;;;;;;3.02;79.27;100114.79;1609216;89;20993;-78
2022/12/18 00:21:16;;;;;;;27.30;10.48;;;;;;;2.98;79.46;100117.70;1613752;89;21025;-77
2022/12/18 00:23:45;;;;;;;27.60;11.60;;;;;;;2.94;79.83;100119.76;1612069;89;21028;-77
2022/12/18 00:26:18;;;;;;;29.85;11.95;;;;;;;2.89;79.95;100121.38;1610891;89;21089;-77
2022/12/18 00:28:45;;;;;;;34.55;13.60;;;;;;;2.83;80.26;100118.25;1612828;89;21505;-77
2022/12/18 00:31:16;;;;;;;31.82;11.93;;;;;;;2.83;80.26;100118.25;1603669;89;21053;-77
2022/12/18 00:33:43;;;;;;;32.38;13.30;;;;;;;2.77;79.18;100132.23;1613853;89;21074;-77
2022/12/18 00:36:17;;;;;;;35.90;14.40;;;;;;;2.74;78.51;100130.86;1606601;89;21005;-76
2022/12/18 00:38:45;;;;;;;36.88;14.43;;;;;;;2.69;78.41;100130.77;1597568;89;21530;-78
2022/12/18 00:42:55;;;;;;;26.30;11.48;;;;;;;2.70;78.37;100143.19;1610456;88;20997;-76
2022/12/18 00:43:43;;;;;;;33.18;12.60;;;;;;;2.72;78.36;100138.52;1611845;89;21058;-78
2022/12/18 00:46:09;;;;;;;33.90;12.73;;;;;;;2.75;78.57;100148.02;1613244;88;21005;-77
2022/12/18 00:48:36;;;;;;;33.10;13.22;;;;;;;2.72;77.54;100151.79;1612818;87;21065;-77
2022/12/18 00:51:02;;;;;;;31.35;12.82;;;;;;;2.77;77.89;100152.78;1607883;88;21056;-77
2022/12/18 00:53:29;;;;;;;31.10;13.93;;;;;;;2.79;77.37;100166.09;1609221;87;21103;-77
2022/12/18 00:55:56;;;;;;;38.78;13.60;;;;;;;2.82;77.87;100163.15;1616007;89;21347;-77
2022/12/18 00:58:22;;;;;;;36.28;13.05;;;;;;;2.75;77.82;100165.58;1614372;89;21063;-77
2022/12/18 01:00:49;;;;;;;29.48;12.88;;;;;;;2.70;77.52;100166.30;1613045;88;21101;-77
2022/12/18 01:03:15;;;;;;;30.82;12.75;;;;;;;2.72;77.99;100181.31;1609318;88;21081;-77
2022/12/18 01:05:43;;;;;;;31.50;12.88;;;;;;;2.69;77.93;100171.85;1614318;88;21021;-78
2022/12/18 01:08:11;;;;;;;36.58;13.88;;;;;;;2.68;78.11;100190.64;1611246;88;21084;-77
2022/12/18 01:10:41;;;;;;;32.88;12.82;;;;;;;2.69;78.19;100183.41;1615845;88;21060;-78
2022/12/18 01:13:08;;;;;;;35.38;13.08;;;;;;;2.64;77.26;100188.83;1610159;89;21089;-77
2022/12/18 01:15:34;;;;;;;28.15;12.43;;;;;;;2.63;77.46;100188.40;1616026;88;21037;-77
2022/12/18 01:18:01;;;;;;;29.90;11.63;;;;;;;2.59;77.36;100182.31;1601918;89;21529;-78
2022/12/18 01:20:27;;;;;;;33.50;13.78;;;;;;;2.56;76.85;100196.77;1616297;88;21057;-78
2022/12/18 01:22:54;;;;;;;35.05;13.40;;;;;;;2.57;77.17;100194.24;1610852;88;21048;-77
2022/12/18 01:25:20;;;;;;;31.20;12.30;;;;;;;2.55;77.28;100199.75;1616214;89;21021;-78
2022/12/18 01:27:47;;;;;;;37.23;12.95;;;;;;;2.54;76.65;100197.14;1601432;89;21010;-77
2022/12/18 01:30:14;;;;;;;32.60;13.43;;;;;;;2.54;76.63;100201.86;1616625;89;21062;-78
2022/12/18 01:32:40;;;;;;;35.13;13.03;;;;;;;2.52;76.82;100223.19;1610658;88;21040;-77
2022/12/18 01:35:08;;;;;;;29.27;12.37;;;;;;;2.51;76.85;100210.78;1605222;89;21053;-78
2022/12/18 01:37:34;;;;;;;37.28;13.13;;;;;;;2.51;77.21;100210.78;1612445;88;21477;-77
2022/12/18 01:40:01;;;;;;;37.20;11.73;;;;;;;2.50;77.18;100219.30;1612780;89;21076;-77
2022/12/18 01:42:28;;;;;;;32.10;12.35;;;;;;;2.48;77.26;100215.82;1613869;88;21592;-76
2022/12/18 01:45:15;;;;;;;34.38;13.08;;;;;;;2.45;77.32;100222.57;1614547;88;21041;-77
2022/12/18 01:47:56;;;;;;;37.20;14.03;;;;;;;2.52;77.79;100228.33;1613820;87;21133;-77
2022/12/18 01:50:34;;;;;;;37.20;13.62;;;;;;;2.46;77.18;100242.29;1612858;89;21049;-76
2022/12/18 01:53:14;;;;;;;31.62;11.90;;;;;;;2.44;77.19;100246.52;1618260;88;21076;-76
2022/12/18 01:55:55;;;;;;;34.80;12.70;;;;;;;2.42;77.03;100243.90;1618445;87;21121;-77
2022/12/18 01:58:45;;;;;;;35.50;12.58;;;;;;;2.42;77.08;100243.90;1618349;89;21021;-77
2022/12/18 02:01:12;;;;;;;35.15;11.63;;;;;;;2.42;77.21;100247.75;1618203;88;21565;-78
2022/12/18 02:03:43;;;;;;;35.40;11.05;;;;;;;2.41;77.21;100257.97;1618216;88;21025;-77
2022/12/18 02:06:33;;;;;;;31.97;11.60;;;;;;;2.42;77.40;100261.00;1617958;88;21080;-77
2022/12/18 02:09:17;;;;;;;29.32;11.00;;;;;;;2.37;77.13;100250.63;1618327;89;21673;-77
2022/12/18 02:12:05;;;;;;;;;;;;;;;2.45;77.51;100259.40;1620668;88;21041;-78
2022/12/18 02:14:43;;;;;;;34.35;12.23;;;;;;;2.46;77.08;100258.55;1617654;88;20140;-77
2022/12/18 02:17:22;;;;;;;35.05;13.83;;;;;;;2.52;77.80;100265.13;1618317;88;21005;-77
2022/12/18 02:20:22;;;;;;;33.60;11.90;;;;;;;2.55;78.10;100266.93;1618331;88;21081;-77
2022/12/18 02:23:15;;;;;;;30.52;12.13;;;;;;;2.57;77.85;100267.41;1601954;88;21037;-77
2022/12/18 02:26:10;;;;;;;37.40;13.30;;;;;;;2.59;77.31;100277.73;1618405;88;21001;-77
2022/12/18 02:28:42;;;;;;;37.78;13.15;;;;;;;2.57;77.33;100281.53;1618028;88;21037;-77
2022/12/18 02:31:15;;;;;;;30.82;12.45;;;;;;;2.57;77.21;100281.95;1602433;89;21855;-78
2022/12/18 02:33:44;;;;;;;39.90;13.25;;;;;;;2.58;76.86;100289.67;1618256;89;21049;-77
2022/12/18 02:36:14;;;;;;;30.25;11.38;;;;;;;2.56;76.93;100297.75;1618447;88;21013;-77
2022/12/18 02:38:43;;;;;;;31.48;12.95;;;;;;;2.56;76.40;100301.59;1618366;89;21036;-78
2022/12/18 02:41:14;;;;;;;31.70;12.58;;;;;;;2.57;76.47;100297.36;1618324;88;21056;-77
2022/12/18 02:43:51;;;;;;;35.05;12.25;;;;;;;2.59;76.83;100296.98;1603818;89;21033;-78
2022/12/18 02:46:38;;;;;;;36.58;13.25;;;;;;;2.61;76.60;100305.59;1618327;88;21016;-78
2022/12/18 02:49:36;;;;;;;33.92;12.90;;;;;;;2.66;77.38;100301.85;1617138;87;21088;-77
2022/12/18 02:52:18;;;;;;;33.98;13.78;;;;;;;2.71;78.07;100309.28;1618321;89;21017;-78
2022/12/18 02:55:27;;;;;;;31.30;12.43;;;;;;;2.72;78.68;100308.01;1615499;87;21014;-78
2022/12/18 02:58:07;;;;;;;32.90;12.90;;;;;;;2.75;79.03;100321.37;1608853;89;21061;-77
2022/12/18 03:00:50;;;;;;;34.63;13.25;;;;;;;2.70;79.03;100314.80;1609075;89;21029;-77
2022/12/18 03:03:36;;;;;;;28.38;12.55;;;;;;;2.74;79.15;100318.33;1587528;89;20972;-78
2022/12/18 03:06:15;;;;;;;38.00;12.18;;;;;;;2.75;79.40;100322.65;1584099;90;21023;-77
2022/12/18 03:08:50;;;;;;;30.72;11.30;;;;;;;2.77;79.32;100328.27;1584058;90;20975;-77
2022/12/18 03:12:22;;;;;;;39.03;12.53;;;;;;;2.79;79.20;100337.31;1584141;90;20999;-77
2022/12/18 03:13:56;;;;;;;34.50;12.47;;;;;;;2.77;79.23;100333.41;1581112;90;22005;-78
2022/12/18 03:16:27;;;;;;;34.45;11.08;;;;;;;2.78;79.30;100342.83;1562128;90;22263;-78
2022/12/18 03:19:04;;;;;;;31.20;11.75;;;;;;;2.81;79.66;100351.06;1582899;90;21527;-77
2022/12/18 03:21:42;;;;;;;31.73;12.50;;;;;;;2.83;79.36;100354.95;1606252;89;21065;-77
2022/12/18 03:24:11;;;;;;;34.98;12.07;;;;;;;2.84;78.88;100361.82;1607608;89;21106;-77
2022/12/18 03:26:42;;;;;;;34.65;12.15;;;;;;;2.86;78.95;100363.59;1605085;89;21074;-78
2022/12/18 03:29:21;;;;;;;32.80;12.05;;;;;;;2.80;75.27;100360.86;1609237;89;21003;-77
2022/12/18 03:31:58;;;;;;;31.68;11.35;;;;;;;2.82;76.06;100373.75;1601439;87;21033;-77
2022/12/18 03:34:36;;;;;;;32.95;12.37;;;;;;;2.78;75.51;100371.09;1608955;89;21067;-77
2022/12/18 03:37:05;;;;;;;28.05;12.82;;;;;;;2.72;74.33;100370.92;1587242;89;21004;-77
2022/12/18 03:39:33;;;;;;;26.27;9.53;;;;;;;2.67;74.64;100378.94;1609201;88;21498;-77
2022/12/18 03:42:27;;;;;;;34.10;12.93;;;;;;;2.59;74.74;100378.72;1602070;88;21057;-77
2022/12/18 03:45:09;;;;;;;33.50;12.05;;;;;;;2.57;75.35;100378.23;1605367;89;21021;-77
2022/12/18 03:47:47;;;;;;;31.68;12.35;;;;;;;2.49;74.37;100383.14;1601788;88;21144;-77
2022/12/18 03:50:42;;;;;;;36.23;12.50;;;;;;;2.48;74.21;100386.52;1599820;89;21019;-77
2022/12/18 03:53:30;;;;;;;31.52;12.68;;;;;;;2.44;74.36;100382.13;1583277;89;21041;-77
2022/12/18 03:56:00;;;;;;;34.18;11.90;;;;;;;2.42;73.99;100386.36;1592485;87;21071;-77
2022/12/18 03:58:31;;;;;;;24.55;8.78;;;;;;;2.42;74.79;100389.34;1610589;89;21093;-77
2022/12/18 04:01:04;;;;;;;31.60;10.88;;;;;;;2.35;73.91;100390.45;1614679;88;21077;-77
2022/12/18 04:03:33;;;;;;;34.25;11.83;;;;;;;2.35;73.76;100394.30;1575568;89;21569;-77
2022/12/18 04:06:02;;;;;;;26.77;9.63;;;;;;;2.33;73.41;100398.95;1615036;89;21002;-77
2022/12/18 04:08:29;;;;;;;32.78;13.25;;;;;;;2.33;73.91;100403.66;1608163;88;21020;-77
2022/12/18 04:11:04;;;;;;;26.97;10.48;;;;;;;2.36;74.49;100415.70;1600536;89;20993;-77
2022/12/18 04:13:35;;;;;;;27.30;10.63;;;;;;;2.35;72.91;100412.69;1604362;88;21081;-77
2022/12/18 04:16:03;;;;;;;33.38;12.63;;;;;;;2.35;73.24;100420.39;1595154;89;21005;-78
2022/12/18 04:18:30;;;;;;;29.82;10.72;;;;;;;2.37;73.69;100423.87;1607688;89;21902;-77
2022/12/18 04:20:57;;;;;;;29.87;11.08;;;;;;;2.35;73.71;100423.82;1609848;89;20982;-77
2022/12/18 04:23:24;;;;;;;32.20;11.75;;;;;;;2.34;73.69;100422.06;1609476;89;21017;-78
2022/12/18 04:25:53;;;;;;;31.37;10.20;;;;;;;2.36;74.07;100413.99;1613738;89;21005;-78
2022/12/18 04:28:21;;;;;;;32.05;11.35;;;;;;;2.38;73.74;100420.04;1609095;89;21681;-77
2022/12/18 04:30:48;;;;;;;28.05;10.53;;;;;;;2.41;73.52;100425.70;1614114;89;21934;-78
2022/12/18 04:33:15;;;;;;;24.32;9.53;;;;;;;2.40;72.56;100423.94;1615609;89;21001;-78
2022/12/18 04:35:42;;;;;;;30.97;11.35;;;;;;;2.44;73.86;100424.91;1614758;89;21046;-78
2022/12/18 04:38:09;;;;;;;30.05;10.60;;;;;;;2.43;73.16;100425.72;1614878;89;21490;-77
2022/12/18 04:40:37;;;;;;;34.13;12.35;;;;;;;2.43;73.65;100433.03;1604388;89;21028;-77
2022/12/18 04:43:06;;;;;;;26.62;9.45;;;;;;;2.39;72.12;100436.33;1613798;89;20999;-78
2022/12/18 04:45:32;;;;;;;32.20;11.05;;;;;;;2.42;73.83;100449.24;1608084;89;21029;-77
2022/12/18 04:48:00;;;;;;;29.27;11.33;;;;;;;2.46;74.18;100458.77;1613418;89;21639;-78
2022/12/18 04:50:27;;;;;;;29.87;10.28;;;;;;;2.47;74.44;100455.81;1615998;89;21160;-77
2022/12/18 04:52:54;;;;;;;30.30;11.05;;;;;;;2.50;74.41;100462.30;1615705;88;21077;-76
2022/12/18 04:55:21;;;;;;;27.87;10.95;;;;;;;2.53;72.86;100466.27;1616031;87;21120;-78
2022/12/18 04:57:48;;;;;;;28.42;10.23;;;;;;;2.52;73.62;100471.78;1617410;89;21053;-77
2022/12/18 05:00:15;;;;;;;27.77;10.53;;;;;;;2.56;73.63;100480.03;1617589;89;21060;-78
2022/12/18 05:02:41;;;;;;;27.85;9.93;;;;;;;2.59;74.42;100480.14;1613717;89;21064;-77
2022/12/18 05:05:08;;;;;;;38.55;12.07;;;;;;;2.60;73.74;100482.28;1617609;89;21122;-77
2022/12/18 05:07:35;;;;;;;28.60;11.45;;;;;;;2.64;74.27;100479.40;1617716;89;21041;-78
2022/12/18 05:10:04;;;;;;;29.50;10.88;;;;;;;2.63;73.83;100486.23;1617627;88;21104;-78
2022/12/18 05:12:32;;;;;;;27.85;9.63;;;;;;;2.61;71.06;100484.43;1618347;89;21057;-78
2022/12/18 05:14:58;;;;;;;30.88;10.15;;;;;;;2.62;71.49;100487.05;1618188;88;21052;-77
2022/12/18 05:17:26;;;;;;;34.73;10.43;;;;;;;2.64;72.07;100492.23;1617938;89;21797;-77
2022/12/18 05:19:52;;;;;;;26.27;9.65;;;;;;;2.61;71.33;100496.88;1617994;89;21009;-78
2022/12/18 05:22:19;;;;;;;29.30;11.53;;;;;;;2.64;72.93;100496.95;1618264;89;21546;-77
2022/12/18 05:24:45;;;;;;;28.35;10.08;;;;;;;2.63;72.40;100506.78;1618251;88;21558;-78
2022/12/18 05:27:12;;;;;;;25.52;8.25;;;;;;;2.61;72.47;100499.45;1618309;89;21005;-77
2022/12/18 05:29:38;;;;;;;34.00;11.88;;;;;;;2.61;72.28;100499.84;1618207;89;21101;-77
2022/12/18 05:32:05;;;;;;;38.75;11.78;;;;;;;2.62;72.47;100504.16;1617645;89;20961;-77
2022/12/18 05:34:33;;;;;;;30.50;12.05;;;;;;;2.61;73.22;100506.25;1618210;89;21023;-77
2022/12/18 05:36:59;;;;;;;32.95;12.47;;;;;;;2.59;73.32;100506.23;1618240;89;21897;-78
2022/12/18 05:39:26;;;;;;;25.27;9.68;;;;;;;2.52;71.79;100517.13;1618202;88;21044;-77
2022/12/18 05:41:52;;;;;;;24.15;10.05;;;;;;;2.52;72.55;100518.00;1618245;88;21450;-78
2022/12/18 05:44:19;;;;;;;31.15;11.30;;;;;;;2.46;71.50;100515.25;1618285;88;21044;-77
2022/12/18 05:46:45;;;;;;;24.75;8.85;;;;;;;2.44;71.97;100529.73;1618112;89;21532;-78
2022/12/18 05:49:12;;;;;;;27.35;10.32;;;;;;;2.44;72.92;100532.30;1617992;87;21059;-77
2022/12/18 05:51:38;;;;;;;25.75;9.63;;;;;;;2.41;72.67;100530.94;1618248;88;21519;-77
2022/12/18 05:54:04;;;;;;;34.80;11.97;;;;;;;2.37;72.59;100535.52;1618199;88;21003;-77
2022/12/18 05:56:31;;;;;;;31.33;11.22;;;;;;;2.35;72.55;100541.02;1618132;89;21043;-78
2022/12/18 05:58:58;;;;;;;29.60;9.43;;;;;;;2.34;72.81;100548.24;1618365;89;21008;-77
2022/12/18 06:01:26;;;;;;;27.02;11.73;;;;;;;2.32;73.04;100542.19;1618158;89;21067;-77
2022/12/18 06:03:53;;;;;;;32.98;11.55;;;;;;;2.29;73.60;100553.23;1618141;88;21024;-77
2022/12/18 06:06:26;;;;;;;36.68;13.10;;;;;;;2.24;74.07;100555.20;1618164;89;21595;-78
2022/12/18 06:08:54;;;;;;;34.87;11.93;;;;;;;2.18;74.55;100561.86;1618352;89;21011;-77
2022/12/18 06:11:25;;;;;;;36.50;12.90;;;;;;;2.13;74.88;100560.86;1618158;89;21043;-77
2022/12/18 06:13:56;;;;;;;28.47;10.32;;;;;;;2.06;75.84;100571.73;1618130;88;21039;-77
2022/12/18 06:16:23;;;;;;;33.40;12.85;;;;;;;2.01;76.07;100566.88;1618199;89;21026;-77
2022/12/18 06:18:49;;;;;;;33.18;12.00;;;;;;;1.96;77.08;100561.98;1597950;88;21041;-77
2022/12/18 06:21:16;;;;;;;32.78;11.70;;;;;;;1.94;76.16;100577.73;1600455;89;20990;-77
2022/12/18 06:23:42;;;;;;;37.38;12.13;;;;;;;1.90;76.97;100579.33;1613402;88;21022;-77
2022/12/18 06:26:11;;;;;;;28.23;10.75;;;;;;;1.88;77.58;100577.54;1612306;89;20981;-77
2022/12/18 06:28:38;;;;;;;35.10;10.70;;;;;;;1.88;77.04;100582.25;1608484;88;21473;-77
2022/12/18 06:31:06;;;;;;;33.13;11.95;;;;;;;1.85;77.32;100578.31;1612281;88;20978;-77
2022/12/18 06:33:33;;;;;;;37.88;13.00;;;;;;;1.86;77.58;100588.16;1605623;88;21017;-77
2022/12/18 06:36:03;;;;;;;54.23;17.85;;;;;;;1.83;78.07;100585.09;1607187;88;20954;-77
2022/12/18 06:38:32;;;;;;;42.53;15.10;;;;;;;1.84;78.19;100598.77;1608708;88;20978;-77
2022/12/18 06:40:58;;;;;;;51.95;18.92;;;;;;;1.87;78.34;100604.88;1607832;89;20977;-77
2022/12/18 06:43:25;;;;;;;45.67;15.83;;;;;;;1.89;78.49;100613.89;1608751;88;21018;-77
2022/12/18 06:45:52;;;;;;;40.08;15.78;;;;;;;1.92;78.79;100620.42;1607671;88;20954;-77
2022/12/18 06:48:22;;;;;;;42.27;15.25;;;;;;;1.95;79.04;100625.25;1608538;88;21030;-77
2022/12/18 06:50:48;;;;;;;33.13;13.48;;;;;;;1.98;78.90;100628.32;1609867;89;20969;-77
2022/12/18 06:53:15;;;;;;;31.93;11.88;;;;;;;2.02;78.47;100638.28;1614660;89;20969;-77
2022/12/18 06:55:42;;;;;;;42.60;16.00;;;;;;;2.01;78.34;100637.80;1611890;87;21009;-77
2022/12/18 06:58:08;;;;;;;42.60;15.32;;;;;;;2.01;78.34;100635.23;1608451;89;20997;-78
2022/12/18 07:00:35;;;;;;;36.95;12.90;;;;;;;2.03;77.86;100646.04;1608900;88;20974;-78
2022/12/18 07:03:02;;;;;;;42.48;17.87;;;;;;;2.02;78.32;100651.11;1610421;89;21029;-77
2022/12/18 07:05:29;;;;;;;45.20;15.35;;;;;;;2.01;78.91;100651.53;1615891;88;21568;-77
2022/12/18 07:07:55;;;;;;;34.88;13.22;;;;;;;2.02;78.65;100657.11;1602107;88;21025;-77
2022/12/18 07:10:22;;;;;;;40.65;12.78;;;;;;;2.05;78.25;100661.07;1616006;88;21025;-77
2022/12/18 07:12:48;;;;;;;40.78;13.20;;;;;;;1.99;79.37;100666.86;1596595;89;21026;-78
2022/12/18 07:15:15;;;;;;;44.53;15.38;;;;;;;1.97;79.87;100668.92;1614516;88;21513;-77
2022/12/18 07:17:41;;;;;;;50.73;14.18;;;;;;;2.00;79.80;100671.57;1614800;89;21012;-77
2022/12/18 07:20:10;;;;;;;41.75;14.85;;;;;;;1.99;79.77;100674.97;1616402;88;21001;-77
2022/12/18 07:22:36;;;;;;;43.83;15.50;;;;;;;2.05;80.00;100677.75;1605588;88;21890;-77
2022/12/18 07:25:03;;;;;;;45.35;16.48;;;;;;;2.03;80.12;100674.64;1614436;89;21545;-78
2022/12/18 07:27:30;;;;;;;43.98;16.12;;;;;;;2.02;80.00;100689.17;1607905;89;21010;-78
2022/12/18 07:29:57;;;;;;;47.50;16.40;;;;;;;2.01;79.95;100692.58;1611331;88;20981;-77
2022/12/18 07:32:23;;;;;;;43.05;16.85;;;;;;;1.96;79.75;100698.80;1606295;88;21606;-77
2022/12/18 07:34:50;;;;;;;50.95;16.87;;;;;;;1.95;79.91;100696.17;1611102;89;21072;-78
2022/12/18 07:37:16;;;;;;;46.58;15.75;;;;;;;1.88;80.08;100691.25;1605970;88;21088;-77
2022/12/18 07:39:43;;;;;;;41.90;16.97;;;;;;;1.84;80.32;100696.22;1610881;88;21036;-77
2022/12/18 07:44:54;;;;;;;40.50;15.50;;;;;;;1.80;80.48;100709.34;1606848;89;21017;-77
2022/12/18 07:47:20;;;;;;;46.08;15.53;;;;;;;1.79;79.87;100713.60;1607443;88;21104;-77
2022/12/18 07:49:47;;;;;;;38.28;12.85;;;;;;;1.81;80.52;100715.33;1609222;89;20982;-77
2022/12/18 07:52:13;;;;;;;40.65;16.10;;;;;;;1.88;80.18;100723.73;1607876;88;21072;-77
2022/12/18 07:54:40;;;;;;;45.83;14.95;;;;;;;1.88;80.60;100730.14;1611007;89;22142;-77
2022/12/18 07:57:08;;;;;;;36.85;15.63;;;;;;;1.93;80.76;100724.75;1616692;87;21068;-77
2022/12/18 07:59:35;;;;;;;47.05;17.23;;;;;;;1.97;80.68;100728.78;1620380;88;21008;-78
2022/12/18 08:02:02;;;;;;;47.25;17.10;;;;;;;2.03;80.72;100733.27;1627057;87;21009;-77
2022/12/18 08:04:28;;;;;;;46.20;17.50;;;;;;;2.09;80.50;100736.05;1624309;88;21072;-77
2022/12/18 08:06:55;;;;;;;49.75;17.40;;;;;;;2.15;80.28;100745.23;1627853;88;21016;-77
2022/12/18 08:09:21;;;;;;;36.95;14.55;;;;;;;2.21;79.91;100744.59;1618758;87;20981;-77
2022/12/18 08:11:48;;;;;;;45.73;17.52;;;;;;;2.25;79.71;100754.52;1628601;88;21489;-77
2022/12/18 08:14:14;;;;;;;40.30;15.98;;;;;;;2.29;79.71;100745.72;1621914;87;20997;-78
2022/12/18 08:16:41;;;;;;;39.90;15.83;;;;;;;2.29;79.51;100750.85;1628187;87;21016;-78
2022/12/18 08:19:12;;;;;;;43.90;16.25;;;;;;;2.34;79.57;100748.02;1622011;87;20996;-78
2022/12/18 08:21:38;;;;;;;46.13;16.70;;;;;;;2.36;79.64;100751.92;1620778;88;21024;-77
2022/12/18 08:24:05;;;;;;;45.55;16.93;;;;;;;2.41;79.11;100757.21;1624319;87;21025;-77
2022/12/18 08:26:32;;;;;;;41.55;16.35;;;;;;;2.42;78.95;100764.97;1617313;88;20992;-77
2022/12/18 08:29:00;;;;;;;46.85;15.15;;;;;;;2.45;78.64;100767.66;1622014;87;21020;-78
2022/12/18 08:31:28;;;;;;;43.75;15.93;;;;;;;2.48;78.81;100761.75;1624477;88;20984;-78
2022/12/18 08:33:56;;;;;;;44.58;15.13;;;;;;;2.50;78.22;100766.11;1623961;87;21017;-78
2022/12/18 08:36:24;;;;;;;38.02;13.48;;;;;;;2.55;78.74;100768.43;1624608;88;21485;-77
2022/12/18 08:38:51;;;;;;;42.00;15.90;;;;;;;2.59;78.44;100774.55;1625602;87;21004;-77
2022/12/18 08:41:19;;;;;;;41.08;15.23;;;;;;;2.66;78.55;100778.19;1621011;88;21024;-77
2022/12/18 08:46:38;;;;;;;41.48;14.70;;;;;;;2.63;77.43;100775.12;1621527;88;21561;-78
2022/12/18 08:49:06;;;;;;;39.90;15.15;;;;;;;2.72;78.03;100778.39;1629437;86;21567;-77
2022/12/18 08:51:33;;;;;;;37.28;16.10;;;;;;;2.68;77.42;100776.13;1614423;87;21074;-77
2022/12/18 08:54:01;;;;;;;42.78;15.18;;;;;;;2.73;77.62;100782.30;1632029;88;21856;-77
2022/12/18 08:56:27;;;;;;;36.25;13.40;;;;;;;2.76;77.55;100777.67;1617156;87;21548;-77
2022/12/18 08:58:55;;;;;;;39.58;14.58;;;;;;;2.78;76.80;100781.16;1615304;89;20997;-77
2022/12/18 09:01:22;;;;;;;39.35;15.90;;;;;;;2.78;77.08;100785.02;1611807;88;21004;-77
2022/12/18 09:03:49;;;;;;;41.80;15.55;;;;;;;2.77;77.27;100784.16;1611426;89;21545;-77
2022/12/18 09:06:20;;;;;;;40.05;12.80;;;;;;;2.77;76.92;100784.58;1604700;88;21620;-77
2022/12/18 09:08:47;;;;;;;36.23;13.48;;;;;;;2.78;77.21;100782.03;1601901;88;21115;-77
2022/12/18 09:11:24;;;;;;;30.57;12.07;;;;;;;2.82;77.57;100784.72;1610531;88;21088;-78
2022/12/18 09:13:52;;;;;;;43.95;14.00;;;;;;;2.81;77.20;100783.85;1603021;88;22398;-77
2022/12/18 09:16:19;;;;;;;38.80;15.05;;;;;;;2.79;77.21;100786.36;1613151;88;21063;-77
2022/12/18 09:18:47;;;;;;;32.98;12.55;;;;;;;2.79;76.67;100794.48;1599796;88;21065;-77
2022/12/18 09:21:20;;;;;;;35.17;15.03;;;;;;;2.79;76.85;100788.06;1611275;88;21005;-78
2022/12/18 09:23:55;;;;;;;39.48;14.83;;;;;;;2.80;76.84;100784.66;1603811;89;21027;-77
2022/12/18 09:26:23;;;;;;;41.58;16.07;;;;;;;2.84;76.89;100783.94;1613320;88;21037;-77
2022/12/18 09:28:50;;;;;;;37.75;15.45;;;;;;;2.84;77.18;100789.08;1609659;89;21103;-77
2022/12/18 09:31:20;;;;;;;39.40;13.60;;;;;;;2.82;76.16;100793.28;1616899;88;21024;-78
2022/12/18 09:33:47;;;;;;;41.00;14.78;;;;;;;2.84;76.39;100798.48;1604557;88;21056;-77
2022/12/18 09:36:17;;;;;;;38.10;13.93;;;;;;;2.81;76.38;100798.40;1599583;89;21024;-77
2022/12/18 09:38:44;;;;;;;44.18;15.58;;;;;;;2.82;76.68;100793.28;1609117;88;21061;-77
2022/12/18 09:41:35;;;;;;;35.00;13.18;;;;;;;2.84;76.96;100792.06;1605867;89;20989;-77
2022/12/18 09:44:07;;;;;;;43.42;16.60;;;;;;;2.90;77.10;100800.83;1618211;88;21040;-77
2022/12/18 09:46:38;;;;;;;39.67;15.03;;;;;;;2.87;77.03;100803.31;1616622;88;21032;-77
2022/12/18 09:49:10;;;;;;;44.63;16.73;;;;;;;2.84;76.28;100799.34;1610482;87;21061;-77
2022/12/18 09:51:53;;;;;;;43.23;16.45;;;;;;;2.88;76.48;100799.05;1609385;89;20993;-78
2022/12/18 09:54:28;;;;;;;34.63;15.00;;;;;;;2.86;76.13;100798.98;1610899;88;21016;-77
2022/12/18 09:56:55;;;;;;;38.75;14.75;;;;;;;2.91;76.45;100805.16;1609020;87;21266;-75
2022/12/18 09:59:37;;;;;;;37.00;16.32;;;;;;;2.98;76.45;100808.80;1598887;89;21053;-75
2022/12/18 10:02:18;;;;;;;40.52;14.55;;;;;;;2.91;76.35;100807.73;1605238;89;21025;-75
2022/12/18 10:04:50;;;;;;;34.40;12.45;;;;;;;2.95;76.76;100808.30;1599126;89;21522;-76
2022/12/18 10:07:43;;;;;;;38.28;13.53;;;;;;;2.94;76.20;100811.67;1604253;89;21058;-75
2022/12/18 10:10:24;;;;;;;45.38;17.12;;;;;;;2.97;76.30;100813.49;1599500;89;21061;-75
2022/12/18 10:13:10;;;;;;;38.53;13.80;;;;;;;3.01;77.17;100812.77;1607025;89;21025;-75
2022/12/18 10:16:02;;;;;;;41.10;15.10;;;;;;;3.02;76.77;100813.22;1601655;89;21014;-75
2022/12/18 10:18:55;;;;;;;37.90;13.50;;;;;;;3.05;76.70;100818.89;1593820;89;21021;-77
2022/12/18 10:21:43;;;;;;;45.60;15.85;;;;;;;3.15;77.58;100821.80;1602009;89;21017;-77
2022/12/18 10:24:32;;;;;;;40.70;15.28;;;;;;;3.10;76.71;100816.91;1599922;89;21018;-78
2022/12/18 10:27:15;;;;;;;41.30;15.10;;;;;;;3.14;76.29;100819.17;1592407;89;21000;-77
2022/12/18 10:29:46;;;;;;;45.85;17.62;;;;;;;3.16;75.54;100822.66;1591694;89;21100;-76
2022/12/18 10:32:20;;;;;;;50.00;18.70;;;;;;;3.22;76.31;100825.84;1600966;89;21017;-76
2022/12/18 10:34:50;;;;;;;44.20;17.62;;;;;;;3.21;76.26;100828.84;1597111;89;21671;-77
2022/12/18 10:37:21;;;;;;;41.58;15.75;;;;;;;3.20;75.60;100824.50;1591172;90;21054;-77
2022/12/18 10:40:14;;;;;;;36.73;15.43;;;;;;;3.08;75.99;100816.41;1591552;90;21010;-77
2022/12/18 10:42:41;;;;;;;44.20;17.77;;;;;;;3.15;75.77;100828.64;1591602;90;21878;-77
2022/12/18 10:45:21;;;;;;;41.25;15.98;;;;;;;3.16;76.32;100826.52;1591579;89;20998;-78
2022/12/18 10:47:48;;;;;;;42.80;15.65;;;;;;;3.14;75.84;100825.20;1590645;89;21585;-77
2022/12/18 10:50:31;;;;;;;41.50;15.63;;;;;;;3.19;75.76;100829.20;1591543;89;21001;-77
2022/12/18 10:53:04;;;;;;;42.03;17.07;;;;;;;3.22;75.78;100825.43;1591720;89;20989;-77
2022/12/18 10:55:34;;;;;;;39.90;16.70;;;;;;;3.19;74.93;100833.05;1591230;89;21120;-77
2022/12/18 10:58:24;;;;;;;41.02;16.17;;;;;;;3.17;74.77;100829.56;1601866;88;21073;-77
2022/12/18 11:01:08;;;;;;;39.63;15.13;;;;;;;3.19;75.27;100829.20;1608773;89;21001;-77
2022/12/18 11:03:38;;;;;;;;;;;;;;;3.23;75.87;100825.91;1611260;88;21025;-77
2022/12/18 11:06:09;;;;;;;43.83;15.63;;;;;;;3.26;75.77;100834.12;1608881;88;20110;-77
2022/12/18 11:08:36;;;;;;;45.80;17.60;;;;;;;3.31;76.15;100833.87;1608808;88;21009;-77
2022/12/18 11:11:21;;;;;;;45.25;16.93;;;;;;;3.35;76.05;100835.29;1608713;89;21002;-78
2022/12/18 11:14:02;;;;;;;43.60;15.63;;;;;;;3.36;76.03;100847.34;1608157;89;21086;-77
2022/12/18 11:16:37;;;;;;;37.90;15.35;;;;;;;3.35;75.12;100844.70;1593197;88;21057;-77
2022/12/18 11:19:32;;;;;;;40.80;16.07;;;;;;;3.39;74.85;100852.56;1592744;89;21053;-77
2022/12/18 11:22:01;;;;;;;39.00;15.10;;;;;;;3.45;75.02;100849.73;1592782;89;21037;-77
2022/12/18 11:24:34;;;;;;;47.93;17.87;;;;;;;3.46;75.12;100847.22;1592744;89;21069;-77
2022/12/18 11:27:03;;;;;;;;;;;;;;;3.53;74.86;100855.99;1595202;90;21545;-77
2022/12/18 11:29:39;;;;;;;36.93;14.58;;;;;;;3.55;74.98;100851.34;1592888;90;20471;-77
2022/12/18 11:32:29;;;;;;;34.78;13.75;;;;;;;3.57;75.22;100854.84;1608166;89;21021;-77
2022/12/18 11:35:19;;;;;;;41.10;15.05;;;;;;;3.58;75.13;100865.99;1618188;89;21033;-77
2022/12/18 11:37:59;;;;;;;43.25;15.70;;;;;;;3.55;75.20;100862.05;1618252;89;21025;-77
2022/12/18 11:40:36;;;;;;;44.95;14.78;;;;;;;3.53;75.13;100862.42;1603905;89;20969;-77
2022/12/18 11:43:10;;;;;;;35.75;15.13;;;;;;;3.53;74.53;100862.42;1618206;89;21590;-77
2022/12/18 11:46:15;;;;;;;41.30;16.45;;;;;;;3.55;74.73;100862.92;1603829;89;21029;-77